createdAt,value
2022-09-06T07:28:05.879Z,22.50
2022-09-06T07:29:11.950Z,22.83
2022-09-06T07:30:14.126Z,22.97
2022-09-06T07:32:36.966Z,23.05
2022-09-06T07:33:38.946Z,23.02
2022-09-06T07:34:44.571Z,23.14
2022-09-06T07:35:59.740Z,23.60
2022-09-06T07:37:01.230Z,23.83
2022-09-06T07:38:03.153Z,23.91
2022-09-06T07:39:04.582Z,24.05
2022-09-06T07:54:07.080Z,23.77
2022-09-06T07:55:18.515Z,24.41
2022-09-06T07:56:21.857Z,24.67
2022-09-06T07:57:23.821Z,24.69
2022-09-06T07:58:25.288Z,25.16
2022-09-06T07:59:27.445Z,25.43
2022-09-06T08:00:28.857Z,24.73
2022-09-06T08:01:34.467Z,24.56
2022-09-06T08:02:39.447Z,24.70
2022-09-06T08:03:40.864Z,24.35
2022-09-06T08:04:42.560Z,24.37
2022-09-06T08:13:58.084Z,25.10
2022-09-06T08:14:59.517Z,25.37
2022-09-06T08:16:06.633Z,25.39
2022-09-06T08:17:08.059Z,25.67
2022-09-06T08:18:13.923Z,25.89
2022-09-06T08:19:15.519Z,24.93
2022-09-06T08:20:17.752Z,24.74
2022-09-06T08:21:20.335Z,25.37
2022-09-06T08:22:21.774Z,25.39
2022-09-06T08:23:23.201Z,25.26
2022-09-06T08:24:24.710Z,25.65
2022-09-06T08:25:26.111Z,26.25
2022-09-06T08:26:28.996Z,25.98
2022-09-06T08:27:30.396Z,25.86
2022-09-06T08:28:35.617Z,25.40
2022-09-06T08:29:37.043Z,25.65
2022-09-06T08:30:38.443Z,25.77
2022-09-06T08:31:42.716Z,25.52
2022-09-06T08:32:44.218Z,25.56
2022-09-06T08:33:47.826Z,25.60
2022-09-06T08:34:49.639Z,25.81
2022-09-06T08:35:58.635Z,25.97
2022-09-06T08:37:00.032Z,26.02
2022-09-06T08:38:01.451Z,25.88
2022-09-06T08:39:05.952Z,25.81
2022-09-06T08:40:08.032Z,26.00
2022-09-06T08:41:33.474Z,25.52
2022-09-06T08:42:39.808Z,25.53
2022-09-06T08:49:05.194Z,26.15
2022-09-06T08:50:07.559Z,26.36
2022-09-06T08:51:38.541Z,25.58
2022-09-06T08:53:15.553Z,25.53
2022-09-06T08:54:40.348Z,25.51
2022-09-06T08:55:51.191Z,25.07
2022-09-06T08:57:04.490Z,25.29
2022-09-06T08:58:17.845Z,25.22
2022-09-06T08:59:20.313Z,25.22
2022-09-06T09:00:27.074Z,25.64
2022-09-06T09:01:37.922Z,25.86
2022-09-06T09:02:51.713Z,25.99
2022-09-06T09:03:58.360Z,26.00
2022-09-06T09:05:04.257Z,25.68
2022-09-06T09:06:12.354Z,25.90
2022-09-06T09:07:36.787Z,26.25
2022-09-06T09:08:44.319Z,26.52
2022-09-06T09:09:46.095Z,26.52
2022-09-06T09:10:50.454Z,25.94
2022-09-06T09:11:52.108Z,26.17
2022-09-06T09:12:53.537Z,26.41
2022-09-06T09:13:59.162Z,26.66
2022-09-06T09:15:06.664Z,25.78
2022-09-06T09:16:08.245Z,25.79
2022-09-06T09:17:20.360Z,25.57
2022-09-06T09:18:26.934Z,25.54
2022-09-06T09:19:31.637Z,25.89
2022-09-06T09:20:33.148Z,26.24
2022-09-06T09:21:37.500Z,26.42
2022-09-06T09:22:40.497Z,26.35
2022-09-06T09:23:41.916Z,26.40
2022-09-06T09:24:43.495Z,26.32
2022-09-06T09:38:52.762Z,28.01
2022-09-06T09:39:56.887Z,27.86
2022-09-06T09:41:01.910Z,27.93
2022-09-06T09:42:03.696Z,28.41
2022-09-06T09:43:17.945Z,28.83
2022-09-06T09:44:19.999Z,28.81
2022-09-06T09:45:29.243Z,28.30
2022-09-06T09:46:33.695Z,28.19
2022-09-06T09:47:35.177Z,28.06
2022-09-06T09:48:37.395Z,27.46
2022-09-06T09:49:38.764Z,27.75
2022-09-06T09:50:40.169Z,27.48
2022-09-06T09:51:48.590Z,27.61
2022-09-06T09:52:49.943Z,27.95
2022-09-06T09:53:54.083Z,27.98
2022-09-06T09:55:02.257Z,27.83
2022-09-06T10:01:29.392Z,28.12
2022-09-06T10:02:36.000Z,28.29
2022-09-06T10:05:04.253Z,28.47
2022-09-06T10:07:33.545Z,27.29
2022-09-06T10:08:43.681Z,27.62
2022-09-06T10:09:57.421Z,27.94
2022-09-06T10:10:58.841Z,28.50
2022-09-06T10:12:00.392Z,28.30
2022-09-06T10:13:12.482Z,28.34
2022-09-06T10:14:32.546Z,27.91
2022-09-06T10:15:39.537Z,27.80
2022-09-06T10:16:44.792Z,27.86
2022-09-06T10:17:52.546Z,27.65
2022-09-06T10:18:54.045Z,27.75
2022-09-06T10:19:56.140Z,27.64
2022-09-06T10:21:15.987Z,27.70
2022-09-06T10:22:26.724Z,27.58
2022-09-06T10:25:14.203Z,27.87
2022-09-06T10:39:58.954Z,28.23
2022-09-06T10:41:11.464Z,28.32
2022-09-06T10:42:25.881Z,28.49
2022-09-06T10:43:38.567Z,28.42
2022-09-06T10:44:42.550Z,28.13
2022-09-06T10:46:02.509Z,28.00
2022-09-06T10:47:16.702Z,27.88
2022-09-06T10:54:04.233Z,28.62
2022-09-06T10:55:10.778Z,29.07
2022-09-06T10:56:21.037Z,29.14
2022-09-06T10:59:37.836Z,29.27
2022-09-06T11:00:47.275Z,29.34
2022-09-06T11:02:12.921Z,29.97
2022-09-06T11:03:58.491Z,30.49
2022-09-06T11:18:13.744Z,32.59
2022-09-06T11:19:33.022Z,31.87
2022-09-06T11:20:44.595Z,30.96
2022-09-06T11:22:07.961Z,30.16
2022-09-06T11:23:12.128Z,30.40
2022-09-06T11:24:22.429Z,30.33
2022-09-06T11:25:38.704Z,30.00
2022-09-06T11:26:55.441Z,29.80
2022-09-06T11:28:00.982Z,29.31
2022-09-06T11:42:07.144Z,28.24
2022-09-06T11:43:12.592Z,27.81
2022-09-06T11:44:52.194Z,27.49
2022-09-06T11:59:47.654Z,26.95
2022-09-06T12:01:13.915Z,26.95
2022-09-06T12:02:34.907Z,26.69
2022-09-06T12:21:52.170Z,26.38
2022-09-06T12:22:54.681Z,26.38
2022-09-06T12:49:47.451Z,25.52
2022-09-06T12:51:00.963Z,24.71
2022-09-06T12:52:19.151Z,24.49
2022-09-06T12:53:24.895Z,24.62
2022-09-06T13:10:46.728Z,23.58
2022-09-06T13:11:55.590Z,23.57
2022-09-06T13:43:29.639Z,20.53
2022-09-06T14:24:00.904Z,19.55
2022-09-06T14:50:20.344Z,19.54
2022-09-06T14:51:23.173Z,19.19
2022-09-06T15:01:13.703Z,19.30
2022-09-06T15:02:15.228Z,19.52
2022-09-06T15:03:17.388Z,19.86
2022-09-06T15:04:19.081Z,20.11
2022-09-06T15:05:23.937Z,20.38
2022-09-06T15:06:27.263Z,20.79
2022-09-06T15:07:28.944Z,20.41
2022-09-06T15:08:30.529Z,20.78
2022-09-06T15:09:32.168Z,21.12
2022-09-06T15:10:37.569Z,21.29
2022-09-06T15:11:40.565Z,21.52
2022-09-06T15:12:42.031Z,21.75
2022-09-06T15:13:43.771Z,21.97
2022-09-06T15:14:48.134Z,22.06
2022-09-06T15:15:49.678Z,22.13
2022-09-06T15:16:55.794Z,22.12
2022-09-06T15:17:58.319Z,22.00
2022-09-06T15:19:00.132Z,21.90
2022-09-06T15:20:02.145Z,22.00
2022-09-06T15:21:15.694Z,22.24
2022-09-06T15:22:17.169Z,22.81
2022-09-06T15:23:26.049Z,23.20
2022-09-06T15:24:28.881Z,23.31
2022-09-06T15:25:30.317Z,23.86
2022-09-06T15:26:35.332Z,24.27
2022-09-06T15:27:36.845Z,24.53
2022-09-06T15:28:40.117Z,24.87
2022-09-06T15:29:42.521Z,24.34
2022-09-06T15:30:44.007Z,23.93
2022-09-06T15:31:51.328Z,23.69
2022-09-06T15:32:53.085Z,23.43
2022-09-06T15:33:54.936Z,22.99
2022-09-06T15:35:04.332Z,22.91
2022-09-06T15:36:08.458Z,22.66
2022-09-06T15:37:10.399Z,22.48
2022-09-06T15:38:12.336Z,22.35
2022-09-06T15:39:14.392Z,22.10
2022-09-06T15:40:16.239Z,22.05
2022-09-06T15:41:19.657Z,21.97
2022-09-06T15:53:48.761Z,21.62
2022-09-06T15:55:08.684Z,21.68
2022-09-06T15:56:12.981Z,21.73
2022-09-06T16:05:12.980Z,21.45
2022-09-06T16:07:25.764Z,20.81
2022-09-06T16:17:18.757Z,21.25
2022-09-06T16:18:20.642Z,21.11
2022-09-06T16:19:22.159Z,21.01
2022-09-06T16:27:38.818Z,21.91
2022-09-06T16:28:40.283Z,21.99
2022-09-06T16:29:44.774Z,21.59
2022-09-06T16:30:46.526Z,21.64
2022-09-06T16:31:48.452Z,21.88
2022-09-06T16:57:02.726Z,21.47
2022-09-06T16:58:04.150Z,21.16
2022-09-06T17:14:27.397Z,19.94
